Airport View

Enter AWOS ICAO identifier for current METAR.

ex. KFNL

KCMH 280051Z 15004KT 10SM SCT250 20/15 A2982 RMK AO2 SLP093 T02000150 $

28 Sep 2020 01:36

Frequency: 124.6

Phone: 614-338-4083

Other Area AWOS: KOSU - KLCK - KTZR - KLHQ

TAF KCMH 272320Z 2800/2824 19006KT P6SM SCT250 FM281200 19008KT P6SM BKN050 FM281700 19010G20KT P6SM VCSH SCT025 BKN050 FM281900 21014G22KT 5SM -SHRA OVC022 FM282100 24014G22KT 4SM SHRA OVC012